sensor_id;sensor_type;location;lat;lon;timestamp;P1;durP1;ratioP1;P2;durP2;ratioP2
43070;SDS011;36278;47.952;21.714;2023-03-26T00:01:09;5.00;;;2.97;;
43070;SDS011;36278;47.952;21.714;2023-03-26T00:03:39;4.23;;;2.50;;
43070;SDS011;36278;47.952;21.714;2023-03-26T00:06:10;7.97;;;3.17;;
43070;SDS011;36278;47.952;21.714;2023-03-26T00:08:40;5.33;;;2.80;;
43070;SDS011;36278;47.952;21.714;2023-03-26T00:11:09;6.43;;;2.70;;
43070;SDS011;36278;47.952;21.714;2023-03-26T00:13:36;6.77;;;3.30;;
43070;SDS011;36278;47.952;21.714;2023-03-26T00:16:02;6.97;;;3.57;;
43070;SDS011;36278;47.952;21.714;2023-03-26T00:18:28;9.43;;;3.57;;
43070;SDS011;36278;47.952;21.714;2023-03-26T00:20:56;6.47;;;3.67;;
43070;SDS011;36278;47.952;21.714;2023-03-26T00:23:22;8.53;;;4.30;;
43070;SDS011;36278;47.952;21.714;2023-03-26T00:25:48;7.13;;;3.70;;
43070;SDS011;36278;47.952;21.714;2023-03-26T00:28:15;8.53;;;4.33;;
43070;SDS011;36278;47.952;21.714;2023-03-26T00:30:41;8.33;;;4.17;;
43070;SDS011;36278;47.952;21.714;2023-03-26T00:33:07;9.20;;;4.43;;
43070;SDS011;36278;47.952;21.714;2023-03-26T00:35:36;9.13;;;4.57;;
43070;SDS011;36278;47.952;21.714;2023-03-26T00:38:02;7.97;;;4.57;;
43070;SDS011;36278;47.952;21.714;2023-03-26T00:40:28;7.33;;;3.90;;
43070;SDS011;36278;47.952;21.714;2023-03-26T00:42:54;6.70;;;3.67;;
43070;SDS011;36278;47.952;21.714;2023-03-26T00:45:20;5.53;;;3.60;;
43070;SDS011;36278;47.952;21.714;2023-03-26T00:47:46;5.93;;;3.53;;
43070;SDS011;36278;47.952;21.714;2023-03-26T00:50:12;6.07;;;3.27;;
43070;SDS011;36278;47.952;21.714;2023-03-26T00:52:43;6.20;;;3.53;;
43070;SDS011;36278;47.952;21.714;2023-03-26T00:55:10;5.10;;;3.20;;
43070;SDS011;36278;47.952;21.714;2023-03-26T00:57:37;9.30;;;3.33;;
43070;SDS011;36278;47.952;21.714;2023-03-26T01:00:08;7.63;;;3.50;;
43070;SDS011;36278;47.952;21.714;2023-03-26T01:02:40;9.00;;;3.20;;
43070;SDS011;36278;47.952;21.714;2023-03-26T01:08:02;9.83;;;4.00;;
43070;SDS011;36278;47.952;21.714;2023-03-26T01:10:42;6.63;;;3.77;;
43070;SDS011;36278;47.952;21.714;2023-03-26T01:13:16;6.70;;;4.13;;
43070;SDS011;36278;47.952;21.714;2023-03-26T01:15:43;8.37;;;4.23;;
43070;SDS011;36278;47.952;21.714;2023-03-26T01:18:14;8.03;;;4.10;;
43070;SDS011;36278;47.952;21.714;2023-03-26T01:20:42;6.57;;;3.23;;
43070;SDS011;36278;47.952;21.714;2023-03-26T01:23:11;9.87;;;3.83;;
43070;SDS011;36278;47.952;21.714;2023-03-26T01:25:40;7.03;;;3.60;;
43070;SDS011;36278;47.952;21.714;2023-03-26T01:28:13;8.50;;;3.97;;
43070;SDS011;36278;47.952;21.714;2023-03-26T01:30:43;6.37;;;3.30;;
43070;SDS011;36278;47.952;21.714;2023-03-26T01:38:36;9.33;;;4.77;;
43070;SDS011;36278;47.952;21.714;2023-03-26T01:41:08;10.50;;;4.90;;
43070;SDS011;36278;47.952;21.714;2023-03-26T01:43:59;8.38;;;4.75;;
43070;SDS011;36278;47.952;21.714;2023-03-26T01:46:24;7.90;;;4.50;;
43070;SDS011;36278;47.952;21.714;2023-03-26T01:48:53;13.07;;;5.27;;
43070;SDS011;36278;47.952;21.714;2023-03-26T01:51:30;11.50;;;5.00;;
43070;SDS011;36278;47.952;21.714;2023-03-26T01:53:57;9.63;;;4.60;;
43070;SDS011;36278;47.952;21.714;2023-03-26T01:59:25;8.97;;;4.63;;
43070;SDS011;36278;47.952;21.714;2023-03-26T02:02:25;6.73;;;4.27;;
43070;SDS011;36278;47.952;21.714;2023-03-26T02:04:54;9.33;;;4.80;;
43070;SDS011;36278;47.952;21.714;2023-03-26T02:07:27;10.77;;;4.27;;
43070;SDS011;36278;47.952;21.714;2023-03-26T02:10:16;10.90;;;4.90;;
43070;SDS011;36278;47.952;21.714;2023-03-26T02:12:46;8.30;;;4.50;;
43070;SDS011;36278;47.952;21.714;2023-03-26T02:15:11;10.10;;;4.50;;
43070;SDS011;36278;47.952;21.714;2023-03-26T02:17:37;6.97;;;4.00;;
43070;SDS011;36278;47.952;21.714;2023-03-26T02:20:07;8.00;;;4.00;;
43070;SDS011;36278;47.952;21.714;2023-03-26T02:22:35;9.93;;;3.77;;
43070;SDS011;36278;47.952;21.714;2023-03-26T02:25:06;4.23;;;2.70;;
43070;SDS011;36278;47.952;21.714;2023-03-26T02:27:33;6.03;;;2.40;;
43070;SDS011;36278;47.952;21.714;2023-03-26T02:29:59;4.40;;;2.30;;
43070;SDS011;36278;47.952;21.714;2023-03-26T02:32:25;4.23;;;2.37;;
43070;SDS011;36278;47.952;21.714;2023-03-26T02:34:50;5.50;;;2.50;;
43070;SDS011;36278;47.952;21.714;2023-03-26T02:37:16;4.33;;;2.43;;
43070;SDS011;36278;47.952;21.714;2023-03-26T02:39:43;5.57;;;2.30;;
43070;SDS011;36278;47.952;21.714;2023-03-26T02:42:09;4.13;;;2.23;;
43070;SDS011;36278;47.952;21.714;2023-03-26T02:44:34;4.83;;;2.43;;
43070;SDS011;36278;47.952;21.714;2023-03-26T02:47:00;3.67;;;2.33;;
43070;SDS011;36278;47.952;21.714;2023-03-26T02:49:25;4.17;;;2.07;;
43070;SDS011;36278;47.952;21.714;2023-03-26T02:51:51;3.77;;;1.90;;
43070;SDS011;36278;47.952;21.714;2023-03-26T02:54:20;4.40;;;1.70;;
43070;SDS011;36278;47.952;21.714;2023-03-26T02:56:46;2.93;;;1.80;;
43070;SDS011;36278;47.952;21.714;2023-03-26T02:59:11;5.77;;;2.13;;
43070;SDS011;36278;47.952;21.714;2023-03-26T03:01:38;4.20;;;1.90;;
43070;SDS011;36278;47.952;21.714;2023-03-26T03:04:07;6.03;;;2.10;;
43070;SDS011;36278;47.952;21.714;2023-03-26T03:06:36;3.57;;;2.10;;
43070;SDS011;36278;47.952;21.714;2023-03-26T03:09:07;3.00;;;1.80;;
43070;SDS011;36278;47.952;21.714;2023-03-26T03:11:33;2.70;;;1.73;;
43070;SDS011;36278;47.952;21.714;2023-03-26T03:13:59;4.17;;;2.13;;
43070;SDS011;36278;47.952;21.714;2023-03-26T03:16:25;4.43;;;1.87;;
43070;SDS011;36278;47.952;21.714;2023-03-26T03:18:52;4.07;;;1.83;;
43070;SDS011;36278;47.952;21.714;2023-03-26T03:21:24;5.77;;;1.60;;
43070;SDS011;36278;47.952;21.714;2023-03-26T03:23:52;2.60;;;1.63;;
43070;SDS011;36278;47.952;21.714;2023-03-26T03:26:18;2.97;;;1.80;;
43070;SDS011;36278;47.952;21.714;2023-03-26T03:28:49;2.20;;;1.43;;
43070;SDS011;36278;47.952;21.714;2023-03-26T03:31:15;3.37;;;1.47;;
43070;SDS011;36278;47.952;21.714;2023-03-26T03:33:42;2.83;;;1.30;;
43070;SDS011;36278;47.952;21.714;2023-03-26T03:36:09;2.57;;;1.40;;
43070;SDS011;36278;47.952;21.714;2023-03-26T03:38:39;2.20;;;1.40;;
43070;SDS011;36278;47.952;21.714;2023-03-26T03:41:06;3.47;;;1.43;;
43070;SDS011;36278;47.952;21.714;2023-03-26T03:43:33;3.93;;;1.67;;
43070;SDS011;36278;47.952;21.714;2023-03-26T03:45:58;2.90;;;1.37;;
43070;SDS011;36278;47.952;21.714;2023-03-26T03:48:25;4.00;;;1.73;;
43070;SDS011;36278;47.952;21.714;2023-03-26T03:50:51;5.13;;;2.00;;
43070;SDS011;36278;47.952;21.714;2023-03-26T03:53:18;3.73;;;2.20;;
43070;SDS011;36278;47.952;21.714;2023-03-26T03:55:44;8.20;;;2.67;;
43070;SDS011;36278;47.952;21.714;2023-03-26T03:58:17;4.90;;;2.67;;
43070;SDS011;36278;47.952;21.714;2023-03-26T04:00:46;6.53;;;2.70;;
43070;SDS011;36278;47.952;21.714;2023-03-26T04:03:16;5.13;;;2.53;;
43070;SDS011;36278;47.952;21.714;2023-03-26T04:05:43;5.03;;;2.70;;
43070;SDS011;36278;47.952;21.714;2023-03-26T04:08:19;5.20;;;2.37;;
43070;SDS011;36278;47.952;21.714;2023-03-26T04:10:48;7.23;;;2.73;;
43070;SDS011;36278;47.952;21.714;2023-03-26T04:13:15;4.87;;;3.00;;
43070;SDS011;36278;47.952;21.714;2023-03-26T04:15:41;7.00;;;3.13;;
43070;SDS011;36278;47.952;21.714;2023-03-26T04:18:07;6.47;;;3.53;;
43070;SDS011;36278;47.952;21.714;2023-03-26T04:20:40;5.37;;;2.93;;
43070;SDS011;36278;47.952;21.714;2023-03-26T04:23:11;4.27;;;2.57;;
43070;SDS011;36278;47.952;21.714;2023-03-26T04:25:39;6.07;;;2.63;;
43070;SDS011;36278;47.952;21.714;2023-03-26T04:28:14;6.10;;;3.10;;
43070;SDS011;36278;47.952;21.714;2023-03-26T04:30:44;6.45;;;3.55;;
43070;SDS011;36278;47.952;21.714;2023-03-26T04:33:10;6.23;;;3.17;;
43070;SDS011;36278;47.952;21.714;2023-03-26T04:35:39;6.30;;;2.90;;
43070;SDS011;36278;47.952;21.714;2023-03-26T04:38:05;4.97;;;2.23;;
43070;SDS011;36278;47.952;21.714;2023-03-26T04:40:32;3.77;;;1.80;;
43070;SDS011;36278;47.952;21.714;2023-03-26T04:43:02;4.70;;;1.80;;
43070;SDS011;36278;47.952;21.714;2023-03-26T04:45:28;3.27;;;1.93;;
43070;SDS011;36278;47.952;21.714;2023-03-26T04:47:58;2.97;;;1.30;;
43070;SDS011;36278;47.952;21.714;2023-03-26T04:50:24;5.20;;;1.57;;
43070;SDS011;36278;47.952;21.714;2023-03-26T04:52:51;2.70;;;1.80;;
43070;SDS011;36278;47.952;21.714;2023-03-26T04:55:30;3.63;;;1.70;;
43070;SDS011;36278;47.952;21.714;2023-03-26T04:58:00;2.33;;;1.40;;
43070;SDS011;36278;47.952;21.714;2023-03-26T05:00:29;3.97;;;1.73;;
43070;SDS011;36278;47.952;21.714;2023-03-26T05:02:55;4.97;;;1.90;;
43070;SDS011;36278;47.952;21.714;2023-03-26T05:05:23;4.83;;;2.00;;
43070;SDS011;36278;47.952;21.714;2023-03-26T05:07:50;4.40;;;1.73;;
43070;SDS011;36278;47.952;21.714;2023-03-26T05:10:16;2.87;;;1.20;;
43070;SDS011;36278;47.952;21.714;2023-03-26T05:12:44;4.30;;;1.40;;
43070;SDS011;36278;47.952;21.714;2023-03-26T05:15:10;2.17;;;1.47;;
43070;SDS011;36278;47.952;21.714;2023-03-26T05:17:37;3.43;;;1.40;;
43070;SDS011;36278;47.952;21.714;2023-03-26T05:20:07;4.20;;;1.43;;
43070;SDS011;36278;47.952;21.714;2023-03-26T05:22:45;4.27;;;1.30;;
43070;SDS011;36278;47.952;21.714;2023-03-26T05:25:12;5.17;;;2.03;;
43070;SDS011;36278;47.952;21.714;2023-03-26T05:27:37;3.87;;;1.70;;
43070;SDS011;36278;47.952;21.714;2023-03-26T05:30:03;2.03;;;1.40;;
43070;SDS011;36278;47.952;21.714;2023-03-26T05:32:30;1.70;;;1.10;;
43070;SDS011;36278;47.952;21.714;2023-03-26T05:34:56;6.90;;;1.43;;
43070;SDS011;36278;47.952;21.714;2023-03-26T05:37:21;2.27;;;1.53;;
43070;SDS011;36278;47.952;21.714;2023-03-26T05:39:51;6.53;;;1.60;;
43070;SDS011;36278;47.952;21.714;2023-03-26T05:42:19;2.43;;;1.43;;
43070;SDS011;36278;47.952;21.714;2023-03-26T05:44:45;3.90;;;1.80;;
43070;SDS011;36278;47.952;21.714;2023-03-26T05:47:11;1.97;;;1.53;;
43070;SDS011;36278;47.952;21.714;2023-03-26T05:49:36;4.47;;;2.00;;
43070;SDS011;36278;47.952;21.714;2023-03-26T05:52:02;4.23;;;1.73;;
43070;SDS011;36278;47.952;21.714;2023-03-26T05:54:27;3.50;;;1.97;;
43070;SDS011;36278;47.952;21.714;2023-03-26T05:56:53;4.10;;;2.50;;
43070;SDS011;36278;47.952;21.714;2023-03-26T05:59:18;2.30;;;1.43;;
43070;SDS011;36278;47.952;21.714;2023-03-26T06:01:44;3.70;;;1.27;;
43070;SDS011;36278;47.952;21.714;2023-03-26T06:04:13;3.70;;;1.60;;
43070;SDS011;36278;47.952;21.714;2023-03-26T06:06:41;4.13;;;2.07;;
43070;SDS011;36278;47.952;21.714;2023-03-26T06:09:08;2.93;;;1.60;;
43070;SDS011;36278;47.952;21.714;2023-03-26T06:11:36;2.30;;;1.30;;
43070;SDS011;36278;47.952;21.714;2023-03-26T06:14:01;1.80;;;1.20;;
43070;SDS011;36278;47.952;21.714;2023-03-26T06:16:27;4.57;;;1.30;;
43070;SDS011;36278;47.952;21.714;2023-03-26T06:18:52;3.27;;;1.20;;
43070;SDS011;36278;47.952;21.714;2023-03-26T06:21:18;2.10;;;1.30;;
43070;SDS011;36278;47.952;21.714;2023-03-26T06:23:43;3.07;;;1.40;;
43070;SDS011;36278;47.952;21.714;2023-03-26T06:26:09;6.87;;;1.50;;
43070;SDS011;36278;47.952;21.714;2023-03-26T06:28:34;2.67;;;1.33;;
43070;SDS011;36278;47.952;21.714;2023-03-26T06:31:00;1.50;;;1.10;;
43070;SDS011;36278;47.952;21.714;2023-03-26T06:33:26;2.70;;;1.83;;
43070;SDS011;36278;47.952;21.714;2023-03-26T06:35:52;1.53;;;1.07;;
43070;SDS011;36278;47.952;21.714;2023-03-26T06:38:18;2.80;;;1.17;;
43070;SDS011;36278;47.952;21.714;2023-03-26T06:40:43;4.00;;;1.20;;
43070;SDS011;36278;47.952;21.714;2023-03-26T06:43:09;2.40;;;1.37;;
43070;SDS011;36278;47.952;21.714;2023-03-26T06:45:34;2.80;;;1.30;;
43070;SDS011;36278;47.952;21.714;2023-03-26T06:48:00;2.40;;;1.10;;
43070;SDS011;36278;47.952;21.714;2023-03-26T06:50:26;5.00;;;1.30;;
43070;SDS011;36278;47.952;21.714;2023-03-26T06:52:53;2.53;;;1.73;;
43070;SDS011;36278;47.952;21.714;2023-03-26T06:55:19;2.17;;;1.23;;
43070;SDS011;36278;47.952;21.714;2023-03-26T06:57:52;2.87;;;1.40;;
43070;SDS011;36278;47.952;21.714;2023-03-26T07:00:20;3.00;;;1.20;;
43070;SDS011;36278;47.952;21.714;2023-03-26T07:02:46;2.00;;;1.00;;
43070;SDS011;36278;47.952;21.714;2023-03-26T07:05:12;1.83;;;1.10;;
43070;SDS011;36278;47.952;21.714;2023-03-26T07:07:38;1.37;;;0.90;;
43070;SDS011;36278;47.952;21.714;2023-03-26T07:10:04;1.53;;;1.00;;
43070;SDS011;36278;47.952;21.714;2023-03-26T07:12:31;1.90;;;1.10;;
43070;SDS011;36278;47.952;21.714;2023-03-26T07:14:56;3.63;;;1.20;;
43070;SDS011;36278;47.952;21.714;2023-03-26T07:17:24;2.00;;;1.10;;
43070;SDS011;36278;47.952;21.714;2023-03-26T07:19:49;2.97;;;1.47;;
43070;SDS011;36278;47.952;21.714;2023-03-26T07:22:21;2.70;;;1.40;;
43070;SDS011;36278;47.952;21.714;2023-03-26T07:24:48;3.83;;;1.37;;
43070;SDS011;36278;47.952;21.714;2023-03-26T07:29:58;2.10;;;1.00;;
43070;SDS011;36278;47.952;21.714;2023-03-26T07:37:47;2.57;;;1.23;;
43070;SDS011;36278;47.952;21.714;2023-03-26T07:48:50;2.60;;;1.33;;
43070;SDS011;36278;47.952;21.714;2023-03-26T07:51:16;1.70;;;0.90;;
43070;SDS011;36278;47.952;21.714;2023-03-26T07:53:44;3.07;;;1.00;;
43070;SDS011;36278;47.952;21.714;2023-03-26T07:56:12;2.50;;;1.00;;
43070;SDS011;36278;47.952;21.714;2023-03-26T08:04:32;2.13;;;1.30;;
43070;SDS011;36278;47.952;21.714;2023-03-26T08:13:04;2.30;;;1.07;;
43070;SDS011;36278;47.952;21.714;2023-03-26T08:15:48;2.13;;;1.30;;
43070;SDS011;36278;47.952;21.714;2023-03-26T08:19:21;3.20;;;1.30;;
43070;SDS011;36278;47.952;21.714;2023-03-26T08:24:46;3.73;;;1.30;;
43070;SDS011;36278;47.952;21.714;2023-03-26T08:27:39;4.70;;;1.30;;
43070;SDS011;36278;47.952;21.714;2023-03-26T08:30:20;3.33;;;1.10;;
43070;SDS011;36278;47.952;21.714;2023-03-26T08:32:49;2.20;;;1.10;;
43070;SDS011;36278;47.952;21.714;2023-03-26T08:35:20;2.72;;;1.17;;
43070;SDS011;36278;47.952;21.714;2023-03-26T08:37:46;4.23;;;1.40;;
43070;SDS011;36278;47.952;21.714;2023-03-26T08:40:11;2.33;;;0.97;;
43070;SDS011;36278;47.952;21.714;2023-03-26T08:42:59;2.77;;;1.30;;
43070;SDS011;36278;47.952;21.714;2023-03-26T08:45:37;4.47;;;1.40;;
43070;SDS011;36278;47.952;21.714;2023-03-26T08:51:18;3.03;;;1.40;;
43070;SDS011;36278;47.952;21.714;2023-03-26T08:54:11;4.70;;;1.43;;
43070;SDS011;36278;47.952;21.714;2023-03-26T08:59:48;2.57;;;1.10;;
43070;SDS011;36278;47.952;21.714;2023-03-26T09:14:08;2.27;;;1.20;;
43070;SDS011;36278;47.952;21.714;2023-03-26T09:22:44;2.73;;;1.20;;
43070;SDS011;36278;47.952;21.714;2023-03-26T09:25:26;2.67;;;1.30;;
43070;SDS011;36278;47.952;21.714;2023-03-26T09:28:17;4.97;;;1.20;;
43070;SDS011;36278;47.952;21.714;2023-03-26T09:33:31;2.87;;;1.03;;
43070;SDS011;36278;47.952;21.714;2023-03-26T09:36:31;3.23;;;1.03;;
43070;SDS011;36278;47.952;21.714;2023-03-26T09:39:16;5.53;;;1.60;;
43070;SDS011;36278;47.952;21.714;2023-03-26T09:58:27;1.37;;;0.93;;
43070;SDS011;36278;47.952;21.714;2023-03-26T10:01:05;2.97;;;0.87;;
43070;SDS011;36278;47.952;21.714;2023-03-26T10:14:53;2.57;;;0.83;;
43070;SDS011;36278;47.952;21.714;2023-03-26T10:20:18;3.63;;;1.10;;
43070;SDS011;36278;47.952;21.714;2023-03-26T10:25:33;3.53;;;0.87;;
43070;SDS011;36278;47.952;21.714;2023-03-26T10:36:36;4.00;;;1.07;;
43070;SDS011;36278;47.952;21.714;2023-03-26T10:55:42;3.23;;;0.90;;
43070;SDS011;36278;47.952;21.714;2023-03-26T10:58:24;1.83;;;0.90;;
43070;SDS011;36278;47.952;21.714;2023-03-26T11:00:54;2.40;;;0.83;;
43070;SDS011;36278;47.952;21.714;2023-03-26T11:08:51;2.53;;;0.90;;
43070;SDS011;36278;47.952;21.714;2023-03-26T11:11:43;1.37;;;0.70;;
43070;SDS011;36278;47.952;21.714;2023-03-26T11:20:00;1.60;;;0.70;;
43070;SDS011;36278;47.952;21.714;2023-03-26T11:33:01;3.67;;;1.03;;
43070;SDS011;36278;47.952;21.714;2023-03-26T11:35:34;1.53;;;0.80;;
43070;SDS011;36278;47.952;21.714;2023-03-26T11:38:08;2.05;;;0.80;;
43070;SDS011;36278;47.952;21.714;2023-03-26T11:40:53;2.73;;;1.00;;
43070;SDS011;36278;47.952;21.714;2023-03-26T11:43:26;3.07;;;1.20;;
43070;SDS011;36278;47.952;21.714;2023-03-26T11:45:57;2.67;;;1.17;;
43070;SDS011;36278;47.952;21.714;2023-03-26T11:48:31;2.33;;;1.00;;
43070;SDS011;36278;47.952;21.714;2023-03-26T11:51:21;1.83;;;0.77;;
43070;SDS011;36278;47.952;21.714;2023-03-26T11:53:51;4.83;;;1.10;;
43070;SDS011;36278;47.952;21.714;2023-03-26T11:56:29;3.87;;;0.93;;
43070;SDS011;36278;47.952;21.714;2023-03-26T12:04:34;1.37;;;0.60;;
43070;SDS011;36278;47.952;21.714;2023-03-26T12:09:57;3.00;;;0.70;;
43070;SDS011;36278;47.952;21.714;2023-03-26T12:12:32;2.90;;;1.50;;
43070;SDS011;36278;47.952;21.714;2023-03-26T12:15:02;4.73;;;1.10;;
43070;SDS011;36278;47.952;21.714;2023-03-26T12:17:30;2.53;;;0.80;;
43070;SDS011;36278;47.952;21.714;2023-03-26T12:19:56;3.40;;;0.97;;
43070;SDS011;36278;47.952;21.714;2023-03-26T12:22:26;2.27;;;0.70;;
43070;SDS011;36278;47.952;21.714;2023-03-26T12:30:22;2.77;;;0.93;;
43070;SDS011;36278;47.952;21.714;2023-03-26T12:32:50;3.60;;;1.33;;
43070;SDS011;36278;47.952;21.714;2023-03-26T12:35:18;4.73;;;1.07;;
43070;SDS011;36278;47.952;21.714;2023-03-26T12:37:51;2.10;;;0.70;;
43070;SDS011;36278;47.952;21.714;2023-03-26T12:42:59;4.60;;;1.07;;
43070;SDS011;36278;47.952;21.714;2023-03-26T12:45:38;1.20;;;0.90;;
43070;SDS011;36278;47.952;21.714;2023-03-26T12:48:06;3.27;;;1.47;;
43070;SDS011;36278;47.952;21.714;2023-03-26T13:04:15;3.50;;;0.77;;
43070;SDS011;36278;47.952;21.714;2023-03-26T13:12:34;5.13;;;1.60;;
43070;SDS011;36278;47.952;21.714;2023-03-26T13:17:42;2.50;;;0.80;;
43070;SDS011;36278;47.952;21.714;2023-03-26T13:20:39;3.70;;;1.23;;
43070;SDS011;36278;47.952;21.714;2023-03-26T13:37:30;2.20;;;0.80;;
43070;SDS011;36278;47.952;21.714;2023-03-26T13:40:20;2.10;;;1.00;;
43070;SDS011;36278;47.952;21.714;2023-03-26T13:46:04;3.13;;;1.02;;
43070;SDS011;36278;47.952;21.714;2023-03-26T13:48:36;2.73;;;1.03;;
43070;SDS011;36278;47.952;21.714;2023-03-26T13:51:14;3.47;;;1.27;;
43070;SDS011;36278;47.952;21.714;2023-03-26T13:53:46;3.55;;;1.17;;
43070;SDS011;36278;47.952;21.714;2023-03-26T13:56:18;3.13;;;0.90;;
43070;SDS011;36278;47.952;21.714;2023-03-26T13:58:51;2.13;;;1.08;;
43070;SDS011;36278;47.952;21.714;2023-03-26T14:01:37;3.63;;;1.13;;
43070;SDS011;36278;47.952;21.714;2023-03-26T14:09:50;3.47;;;1.10;;
43070;SDS011;36278;47.952;21.714;2023-03-26T14:15:31;3.58;;;0.93;;
43070;SDS011;36278;47.952;21.714;2023-03-26T14:29:17;4.03;;;0.90;;
43070;SDS011;36278;47.952;21.714;2023-03-26T14:48:42;2.25;;;1.45;;
43070;SDS011;36278;47.952;21.714;2023-03-26T14:53:41;1.83;;;0.77;;
43070;SDS011;36278;47.952;21.714;2023-03-26T15:07:25;2.47;;;0.80;;
43070;SDS011;36278;47.952;21.714;2023-03-26T15:19:24;5.63;;;1.03;;
43070;SDS011;36278;47.952;21.714;2023-03-26T15:41:37;2.15;;;1.10;;
43070;SDS011;36278;47.952;21.714;2023-03-26T15:44:18;4.10;;;1.25;;
43070;SDS011;36278;47.952;21.714;2023-03-26T15:49:42;3.20;;;1.58;;
43070;SDS011;36278;47.952;21.714;2023-03-26T15:57:41;4.07;;;1.60;;
43070;SDS011;36278;47.952;21.714;2023-03-26T16:05:56;6.32;;;1.50;;
43070;SDS011;36278;47.952;21.714;2023-03-26T16:11:51;3.95;;;1.70;;
43070;SDS011;36278;47.952;21.714;2023-03-26T16:14:44;2.17;;;1.10;;
43070;SDS011;36278;47.952;21.714;2023-03-26T16:17:12;4.60;;;1.30;;
43070;SDS011;36278;47.952;21.714;2023-03-26T16:28:15;1.73;;;0.97;;
43070;SDS011;36278;47.952;21.714;2023-03-26T16:30:42;2.27;;;1.20;;
43070;SDS011;36278;47.952;21.714;2023-03-26T16:33:14;2.13;;;1.23;;
43070;SDS011;36278;47.952;21.714;2023-03-26T16:36:02;3.50;;;1.20;;
43070;SDS011;36278;47.952;21.714;2023-03-26T16:38:48;2.80;;;1.47;;
43070;SDS011;36278;47.952;21.714;2023-03-26T16:44:08;3.60;;;1.67;;
43070;SDS011;36278;47.952;21.714;2023-03-26T16:55:31;5.00;;;2.90;;
